sensor_id;sensor_type;location;lat;lon;timestamp;P1;P2;P0
49343;PMS5003;35210;41.606;-87.602;2023-06-24T00:00:50;13.40;12.40;9.00
49343;PMS5003;35210;41.606;-87.602;2023-06-24T00:03:19;11.20;10.20;8.00
49343;PMS5003;35210;41.606;-87.602;2023-06-24T00:05:47;11.20;10.00;7.60
49343;PMS5003;35210;41.606;-87.602;2023-06-24T00:08:15;16.80;12.20;8.00
49343;PMS5003;35210;41.606;-87.602;2023-06-24T00:10:47;9.60;8.40;6.40
49343;PMS5003;35210;41.606;-87.602;2023-06-24T00:13:15;8.80;8.80;6.60
49343;PMS5003;35210;41.606;-87.602;2023-06-24T00:15:43;6.40;6.40;4.40
49343;PMS5003;35210;41.606;-87.602;2023-06-24T00:18:12;9.60;9.60;6.00
49343;PMS5003;35210;41.606;-87.602;2023-06-24T00:20:40;8.20;7.00;5.80
49343;PMS5003;35210;41.606;-87.602;2023-06-24T00:23:08;7.00;7.00;6.40
49343;PMS5003;35210;41.606;-87.602;2023-06-24T00:25:40;8.20;8.20;6.00
49343;PMS5003;35210;41.606;-87.602;2023-06-24T00:28:10;8.80;8.80;6.00
49343;PMS5003;35210;41.606;-87.602;2023-06-24T00:30:38;9.60;9.00;6.20
49343;PMS5003;35210;41.606;-87.602;2023-06-24T00:33:06;9.60;8.60;7.00
49343;PMS5003;35210;41.606;-87.602;2023-06-24T00:35:37;10.40;10.40;7.40
49343;PMS5003;35210;41.606;-87.602;2023-06-24T00:38:05;13.40;11.40;8.60
49343;PMS5003;35210;41.606;-87.602;2023-06-24T00:40:33;11.80;10.60;8.00
49343;PMS5003;35210;41.606;-87.602;2023-06-24T00:43:01;12.00;11.20;8.60
49343;PMS5003;35210;41.606;-87.602;2023-06-24T00:45:32;12.20;10.60;7.40
49343;PMS5003;35210;41.606;-87.602;2023-06-24T00:48:01;6.80;6.80;6.00
49343;PMS5003;35210;41.606;-87.602;2023-06-24T00:50:29;13.60;11.80;9.20
49343;PMS5003;35210;41.606;-87.602;2023-06-24T00:52:58;9.60;9.60;8.00
49343;PMS5003;35210;41.606;-87.602;2023-06-24T00:55:26;12.20;11.60;8.20
49343;PMS5003;35210;41.606;-87.602;2023-06-24T00:57:55;10.20;8.60;6.60
49343;PMS5003;35210;41.606;-87.602;2023-06-24T01:00:25;11.00;11.00;8.00
49343;PMS5003;35210;41.606;-87.602;2023-06-24T01:02:55;13.00;12.00;7.60
49343;PMS5003;35210;41.606;-87.602;2023-06-24T01:05:24;12.20;10.20;6.40
49343;PMS5003;35210;41.606;-87.602;2023-06-24T01:07:53;12.40;11.60;8.20
49343;PMS5003;35210;41.606;-87.602;2023-06-24T01:10:22;9.60;9.60;8.20
49343;PMS5003;35210;41.606;-87.602;2023-06-24T01:12:51;10.60;9.40;8.00
49343;PMS5003;35210;41.606;-87.602;2023-06-24T01:15:19;11.00;9.80;8.00
49343;PMS5003;35210;41.606;-87.602;2023-06-24T01:17:50;10.80;10.40;7.80
49343;PMS5003;35210;41.606;-87.602;2023-06-24T01:20:23;12.40;8.60;7.00
49343;PMS5003;35210;41.606;-87.602;2023-06-24T01:23:10;12.00;12.00;9.00
49343;PMS5003;35210;41.606;-87.602;2023-06-24T01:25:59;10.80;9.80;7.20
49343;PMS5003;35210;41.606;-87.602;2023-06-24T01:29:04;10.60;10.00;7.60
49343;PMS5003;35210;41.606;-87.602;2023-06-24T01:31:46;10.20;9.00;7.00
49343;PMS5003;35210;41.606;-87.602;2023-06-24T01:34:20;10.00;9.20;7.80
49343;PMS5003;35210;41.606;-87.602;2023-06-24T01:36:55;11.40;8.80;6.60
49343;PMS5003;35210;41.606;-87.602;2023-06-24T01:39:30;11.00;11.00;7.60
49343;PMS5003;35210;41.606;-87.602;2023-06-24T01:42:03;13.40;13.00;8.60
49343;PMS5003;35210;41.606;-87.602;2023-06-24T01:44:37;14.80;10.20;7.20
49343;PMS5003;35210;41.606;-87.602;2023-06-24T01:47:10;12.00;11.00;8.40
49343;PMS5003;35210;41.606;-87.602;2023-06-24T01:49:41;9.40;9.40;8.80
49343;PMS5003;35210;41.606;-87.602;2023-06-24T01:52:11;9.80;9.40;7.00
49343;PMS5003;35210;41.606;-87.602;2023-06-24T01:54:41;11.00;9.60;7.00
49343;PMS5003;35210;41.606;-87.602;2023-06-24T01:57:11;8.00;8.00;8.00
49343;PMS5003;35210;41.606;-87.602;2023-06-24T01:59:40;10.00;10.00;8.00
49343;PMS5003;35210;41.606;-87.602;2023-06-24T02:02:16;11.00;11.00;8.00
49343;PMS5003;35210;41.606;-87.602;2023-06-24T02:04:47;11.00;10.20;8.20
49343;PMS5003;35210;41.606;-87.602;2023-06-24T02:07:17;11.80;11.80;9.60
49343;PMS5003;35210;41.606;-87.602;2023-06-24T02:09:47;11.20;11.20;8.80
49343;PMS5003;35210;41.606;-87.602;2023-06-24T02:12:17;12.00;10.40;8.40
49343;PMS5003;35210;41.606;-87.602;2023-06-24T02:14:46;10.80;10.60;9.20
49343;PMS5003;35210;41.606;-87.602;2023-06-24T02:17:17;11.40;10.40;8.20
49343;PMS5003;35210;41.606;-87.602;2023-06-24T02:19:48;12.60;12.60;8.80
49343;PMS5003;35210;41.606;-87.602;2023-06-24T02:22:18;16.20;13.20;8.40
49343;PMS5003;35210;41.606;-87.602;2023-06-24T02:24:48;12.20;11.60;8.00
49343;PMS5003;35210;41.606;-87.602;2023-06-24T02:27:18;14.00;14.00;10.80
49343;PMS5003;35210;41.606;-87.602;2023-06-24T02:29:49;11.00;11.00;8.20
49343;PMS5003;35210;41.606;-87.602;2023-06-24T02:32:21;13.60;13.60;10.60
49343;PMS5003;35210;41.606;-87.602;2023-06-24T02:34:49;14.80;11.60;8.20
49343;PMS5003;35210;41.606;-87.602;2023-06-24T02:37:17;11.40;11.40;9.00
49343;PMS5003;35210;41.606;-87.602;2023-06-24T02:39:46;13.80;13.40;10.20
49343;PMS5003;35210;41.606;-87.602;2023-06-24T02:42:14;11.60;11.60;9.00
49343;PMS5003;35210;41.606;-87.602;2023-06-24T02:44:42;11.60;11.60;9.40
49343;PMS5003;35210;41.606;-87.602;2023-06-24T02:47:11;10.40;9.00;8.00
49343;PMS5003;35210;41.606;-87.602;2023-06-24T02:49:43;10.20;10.20;8.20
49343;PMS5003;35210;41.606;-87.602;2023-06-24T02:52:15;15.20;14.00;9.00
49343;PMS5003;35210;41.606;-87.602;2023-06-24T02:54:43;11.40;11.20;8.80
49343;PMS5003;35210;41.606;-87.602;2023-06-24T02:57:12;16.20;14.60;10.20
49343;PMS5003;35210;41.606;-87.602;2023-06-24T02:59:41;13.80;13.40;10.60
49343;PMS5003;35210;41.606;-87.602;2023-06-24T03:02:10;13.60;12.00;8.20
49343;PMS5003;35210;41.606;-87.602;2023-06-24T03:04:38;16.40;15.20;11.00
49343;PMS5003;35210;41.606;-87.602;2023-06-24T03:07:09;18.40;14.80;11.00
49343;PMS5003;35210;41.606;-87.602;2023-06-24T03:09:38;13.80;12.20;10.40
49343;PMS5003;35210;41.606;-87.602;2023-06-24T03:12:07;15.00;14.00;10.20
49343;PMS5003;35210;41.606;-87.602;2023-06-24T03:14:36;17.40;15.20;11.60
49343;PMS5003;35210;41.606;-87.602;2023-06-24T03:17:04;13.60;13.00;8.40
49343;PMS5003;35210;41.606;-87.602;2023-06-24T03:19:32;16.60;15.00;12.00
49343;PMS5003;35210;41.606;-87.602;2023-06-24T03:22:00;19.00;18.00;14.00
49343;PMS5003;35210;41.606;-87.602;2023-06-24T03:24:30;18.80;15.80;12.60
49343;PMS5003;35210;41.606;-87.602;2023-06-24T03:26:58;21.20;16.60;11.40
49343;PMS5003;35210;41.606;-87.602;2023-06-24T03:29:27;13.20;12.40;10.80
49343;PMS5003;35210;41.606;-87.602;2023-06-24T03:31:55;25.20;20.60;15.00
49343;PMS5003;35210;41.606;-87.602;2023-06-24T03:34:23;22.00;17.40;13.40
49343;PMS5003;35210;41.606;-87.602;2023-06-24T03:36:52;21.00;19.80;15.60
49343;PMS5003;35210;41.606;-87.602;2023-06-24T03:39:21;16.80;15.80;11.00
49343;PMS5003;35210;41.606;-87.602;2023-06-24T03:41:50;22.00;19.60;14.80
49343;PMS5003;35210;41.606;-87.602;2023-06-24T03:44:19;26.80;22.40;17.60
49343;PMS5003;35210;41.606;-87.602;2023-06-24T03:46:48;16.80;13.20;9.00
49343;PMS5003;35210;41.606;-87.602;2023-06-24T03:49:16;25.20;20.80;15.40
49343;PMS5003;35210;41.606;-87.602;2023-06-24T03:51:44;21.80;19.00;14.00
49343;PMS5003;35210;41.606;-87.602;2023-06-24T03:54:12;19.60;15.80;12.80
49343;PMS5003;35210;41.606;-87.602;2023-06-24T03:56:40;21.40;17.00;13.00
49343;PMS5003;35210;41.606;-87.602;2023-06-24T03:59:10;21.40;17.60;12.00
49343;PMS5003;35210;41.606;-87.602;2023-06-24T04:01:38;23.60;18.80;14.20
49343;PMS5003;35210;41.606;-87.602;2023-06-24T04:04:06;19.20;18.20;13.00
49343;PMS5003;35210;41.606;-87.602;2023-06-24T04:06:34;18.80;14.20;10.60
49343;PMS5003;35210;41.606;-87.602;2023-06-24T04:09:02;18.80;16.60;12.00
49343;PMS5003;35210;41.606;-87.602;2023-06-24T04:11:32;14.20;14.20;11.60
49343;PMS5003;35210;41.606;-87.602;2023-06-24T04:14:00;15.40;14.40;11.00
49343;PMS5003;35210;41.606;-87.602;2023-06-24T04:16:29;14.80;13.00;9.20
49343;PMS5003;35210;41.606;-87.602;2023-06-24T04:18:57;18.80;14.00;10.80
49343;PMS5003;35210;41.606;-87.602;2023-06-24T04:21:26;15.40;13.40;10.00
49343;PMS5003;35210;41.606;-87.602;2023-06-24T04:23:54;17.20;14.20;10.00
49343;PMS5003;35210;41.606;-87.602;2023-06-24T04:26:22;8.80;8.80;8.00
49343;PMS5003;35210;41.606;-87.602;2023-06-24T04:28:50;10.00;10.00;8.00
49343;PMS5003;35210;41.606;-87.602;2023-06-24T04:31:19;10.60;9.80;6.60
49343;PMS5003;35210;41.606;-87.602;2023-06-24T04:33:48;11.00;11.00;10.00
49343;PMS5003;35210;41.606;-87.602;2023-06-24T04:36:16;11.80;11.80;9.20
49343;PMS5003;35210;41.606;-87.602;2023-06-24T04:38:45;10.20;10.20;7.80
49343;PMS5003;35210;41.606;-87.602;2023-06-24T04:41:13;12.00;12.00;9.00
49343;PMS5003;35210;41.606;-87.602;2023-06-24T04:43:44;10.80;10.80;9.00
49343;PMS5003;35210;41.606;-87.602;2023-06-24T04:46:13;13.00;12.80;10.80
49343;PMS5003;35210;41.606;-87.602;2023-06-24T04:48:42;13.00;11.60;8.00
49343;PMS5003;35210;41.606;-87.602;2023-06-24T04:51:12;14.00;13.00;10.40
49343;PMS5003;35210;41.606;-87.602;2023-06-24T04:53:40;11.60;11.60;8.20
49343;PMS5003;35210;41.606;-87.602;2023-06-24T04:56:08;13.60;12.40;10.00
49343;PMS5003;35210;41.606;-87.602;2023-06-24T04:58:37;12.40;12.40;10.00
49343;PMS5003;35210;41.606;-87.602;2023-06-24T05:01:05;14.00;14.00;10.00
49343;PMS5003;35210;41.606;-87.602;2023-06-24T05:03:33;14.40;13.40;10.20
49343;PMS5003;35210;41.606;-87.602;2023-06-24T05:06:01;10.60;10.60;8.80
49343;PMS5003;35210;41.606;-87.602;2023-06-24T05:08:31;14.20;13.80;10.20
49343;PMS5003;35210;41.606;-87.602;2023-06-24T05:10:59;15.00;14.00;11.80
49343;PMS5003;35210;41.606;-87.602;2023-06-24T05:13:27;14.20;14.20;10.40
49343;PMS5003;35210;41.606;-87.602;2023-06-24T05:15:55;13.80;13.00;9.40
49343;PMS5003;35210;41.606;-87.602;2023-06-24T05:18:23;12.60;11.40;9.00
49343;PMS5003;35210;41.606;-87.602;2023-06-24T05:20:52;14.60;10.40;8.00
49343;PMS5003;35210;41.606;-87.602;2023-06-24T05:23:20;16.00;14.00;11.00
49343;PMS5003;35210;41.606;-87.602;2023-06-24T05:25:49;13.40;13.40;10.40
49343;PMS5003;35210;41.606;-87.602;2023-06-24T05:28:17;15.80;14.60;10.00
49343;PMS5003;35210;41.606;-87.602;2023-06-24T05:30:46;10.00;9.60;5.60
49343;PMS5003;35210;41.606;-87.602;2023-06-24T05:33:14;15.40;13.40;10.20
49343;PMS5003;35210;41.606;-87.602;2023-06-24T05:35:42;14.80;13.80;10.40
49343;PMS5003;35210;41.606;-87.602;2023-06-24T05:38:11;16.60;15.40;11.80
49343;PMS5003;35210;41.606;-87.602;2023-06-24T05:40:39;16.60;13.80;10.00
49343;PMS5003;35210;41.606;-87.602;2023-06-24T05:43:09;17.40;15.60;10.00
49343;PMS5003;35210;41.606;-87.602;2023-06-24T05:45:37;15.00;13.40;9.40
49343;PMS5003;35210;41.606;-87.602;2023-06-24T05:48:06;16.60;16.00;12.40
49343;PMS5003;35210;41.606;-87.602;2023-06-24T05:50:34;20.80;17.20;11.40
49343;PMS5003;35210;41.606;-87.602;2023-06-24T05:53:02;17.40;15.40;11.40
49343;PMS5003;35210;41.606;-87.602;2023-06-24T05:55:30;17.60;16.00;12.40
49343;PMS5003;35210;41.606;-87.602;2023-06-24T05:57:58;16.40;14.80;11.60
49343;PMS5003;35210;41.606;-87.602;2023-06-24T06:00:28;18.60;15.00;12.80
49343;PMS5003;35210;41.606;-87.602;2023-06-24T06:02:56;17.40;16.20;11.60
49343;PMS5003;35210;41.606;-87.602;2023-06-24T06:05:24;12.80;12.20;9.80
49343;PMS5003;35210;41.606;-87.602;2023-06-24T06:07:52;18.60;18.00;13.00
49343;PMS5003;35210;41.606;-87.602;2023-06-24T06:10:20;18.00;16.40;12.80
49343;PMS5003;35210;41.606;-87.602;2023-06-24T06:12:48;15.40;14.60;12.00
49343;PMS5003;35210;41.606;-87.602;2023-06-24T06:15:18;17.60;17.60;13.20
49343;PMS5003;35210;41.606;-87.602;2023-06-24T06:17:48;16.60;15.60;12.00
49343;PMS5003;35210;41.606;-87.602;2023-06-24T06:20:16;17.40;17.00;12.40
49343;PMS5003;35210;41.606;-87.602;2023-06-24T06:22:44;15.00;14.40;11.20
49343;PMS5003;35210;41.606;-87.602;2023-06-24T06:25:12;14.80;14.20;11.00
49343;PMS5003;35210;41.606;-87.602;2023-06-24T06:27:41;19.80;19.80;16.00
49343;PMS5003;35210;41.606;-87.602;2023-06-24T06:30:09;20.40;18.40;12.80
49343;PMS5003;35210;41.606;-87.602;2023-06-24T06:32:39;20.40;16.80;12.60
49343;PMS5003;35210;41.606;-87.602;2023-06-24T06:35:09;20.60;18.60;14.40
49343;PMS5003;35210;41.606;-87.602;2023-06-24T06:37:37;15.00;13.80;12.00
49343;PMS5003;35210;41.606;-87.602;2023-06-24T06:40:06;19.80;16.40;10.20
49343;PMS5003;35210;41.606;-87.602;2023-06-24T06:42:36;21.40;20.40;15.40
49343;PMS5003;35210;41.606;-87.602;2023-06-24T06:45:04;20.20;18.00;14.60
49343;PMS5003;35210;41.606;-87.602;2023-06-24T06:47:33;19.80;17.60;13.60
49343;PMS5003;35210;41.606;-87.602;2023-06-24T06:50:01;20.60;20.40;15.00
49343;PMS5003;35210;41.606;-87.602;2023-06-24T06:52:31;14.00;12.60;9.40
49343;PMS5003;35210;41.606;-87.602;2023-06-24T06:55:00;21.00;20.40;15.20
49343;PMS5003;35210;41.606;-87.602;2023-06-24T06:57:28;19.20;14.40;11.40
49343;PMS5003;35210;41.606;-87.602;2023-06-24T06:59:57;23.60;21.20;15.20
49343;PMS5003;35210;41.606;-87.602;2023-06-24T07:02:25;19.20;18.20;14.20
49343;PMS5003;35210;41.606;-87.602;2023-06-24T07:04:53;22.40;21.80;15.40
49343;PMS5003;35210;41.606;-87.602;2023-06-24T07:07:21;21.00;20.60;15.80
49343;PMS5003;35210;41.606;-87.602;2023-06-24T07:09:51;23.00;18.80;16.20
49343;PMS5003;35210;41.606;-87.602;2023-06-24T07:12:19;19.80;18.80;14.20
49343;PMS5003;35210;41.606;-87.602;2023-06-24T07:14:49;22.80;22.80;16.60
49343;PMS5003;35210;41.606;-87.602;2023-06-24T07:17:17;18.00;17.60;14.00
49343;PMS5003;35210;41.606;-87.602;2023-06-24T07:19:46;22.20;19.80;15.20
49343;PMS5003;35210;41.606;-87.602;2023-06-24T07:22:14;26.80;24.40;18.00
49343;PMS5003;35210;41.606;-87.602;2023-06-24T07:24:42;21.80;20.00;14.00
49343;PMS5003;35210;41.606;-87.602;2023-06-24T07:27:12;11.00;10.00;5.80
49343;PMS5003;35210;41.606;-87.602;2023-06-24T07:29:40;21.40;21.40;16.40
49343;PMS5003;35210;41.606;-87.602;2023-06-24T07:32:08;16.00;15.20;12.60
49343;PMS5003;35210;41.606;-87.602;2023-06-24T07:34:37;23.60;23.60;17.40
49343;PMS5003;35210;41.606;-87.602;2023-06-24T07:37:05;25.00;24.00;17.00
49343;PMS5003;35210;41.606;-87.602;2023-06-24T07:39:33;25.80;25.00;18.00
49343;PMS5003;35210;41.606;-87.602;2023-06-24T07:42:01;26.40;23.00;16.60
49343;PMS5003;35210;41.606;-87.602;2023-06-24T07:44:31;20.00;18.80;16.00
49343;PMS5003;35210;41.606;-87.602;2023-06-24T07:46:59;22.80;21.60;17.80
49343;PMS5003;35210;41.606;-87.602;2023-06-24T07:49:27;23.80;23.00;17.40
49343;PMS5003;35210;41.606;-87.602;2023-06-24T07:51:55;21.00;20.00;15.00
49343;PMS5003;35210;41.606;-87.602;2023-06-24T07:54:23;21.60;21.40;16.20
49343;PMS5003;35210;41.606;-87.602;2023-06-24T07:56:52;22.80;20.00;15.40
49343;PMS5003;35210;41.606;-87.602;2023-06-24T07:59:21;24.80;22.80;16.60
49343;PMS5003;35210;41.606;-87.602;2023-06-24T08:01:51;20.20;19.20;13.80
49343;PMS5003;35210;41.606;-87.602;2023-06-24T08:04:20;25.80;22.40;18.00
49343;PMS5003;35210;41.606;-87.602;2023-06-24T08:06:48;23.00;23.00;16.80
49343;PMS5003;35210;41.606;-87.602;2023-06-24T08:09:16;22.80;21.80;16.60
49343;PMS5003;35210;41.606;-87.602;2023-06-24T08:11:45;24.00;21.00;16.60
49343;PMS5003;35210;41.606;-87.602;2023-06-24T08:14:13;25.80;23.00;17.00
49343;PMS5003;35210;41.606;-87.602;2023-06-24T08:16:41;25.00;23.80;16.80
49343;PMS5003;35210;41.606;-87.602;2023-06-24T08:19:11;25.60;21.00;15.80
49343;PMS5003;35210;41.606;-87.602;2023-06-24T08:21:39;25.00;21.80;16.60
49343;PMS5003;35210;41.606;-87.602;2023-06-24T08:24:07;25.60;23.00;16.40
49343;PMS5003;35210;41.606;-87.602;2023-06-24T08:26:35;22.80;20.40;15.40
49343;PMS5003;35210;41.606;-87.602;2023-06-24T08:29:04;24.00;23.40;17.20
49343;PMS5003;35210;41.606;-87.602;2023-06-24T08:31:32;24.00;22.40;17.00
49343;PMS5003;35210;41.606;-87.602;2023-06-24T08:34:00;20.00;16.60;13.00
49343;PMS5003;35210;41.606;-87.602;2023-06-24T08:36:32;25.80;22.40;16.40
49343;PMS5003;35210;41.606;-87.602;2023-06-24T08:39:02;21.60;20.40;16.00
49343;PMS5003;35210;41.606;-87.602;2023-06-24T08:41:30;19.40;19.00;13.40
49343;PMS5003;35210;41.606;-87.602;2023-06-24T08:43:58;22.60;21.40;15.00
49343;PMS5003;35210;41.606;-87.602;2023-06-24T08:46:26;19.80;16.60;11.20
49343;PMS5003;35210;41.606;-87.602;2023-06-24T08:48:59;27.60;25.20;18.40
49343;PMS5003;35210;41.606;-87.602;2023-06-24T08:51:29;23.40;22.20;16.80
49343;PMS5003;35210;41.606;-87.602;2023-06-24T08:54:03;24.40;22.40;17.40
49343;PMS5003;35210;41.606;-87.602;2023-06-24T08:56:34;25.80;23.00;18.20
49343;PMS5003;35210;41.606;-87.602;2023-06-24T08:59:04;21.80;20.80;17.80
49343;PMS5003;35210;41.606;-87.602;2023-06-24T09:01:32;22.80;22.60;17.20
49343;PMS5003;35210;41.606;-87.602;2023-06-24T09:04:00;31.60;25.40;18.80
49343;PMS5003;35210;41.606;-87.602;2023-06-24T09:06:29;21.40;21.40;17.40
49343;PMS5003;35210;41.606;-87.602;2023-06-24T09:08:59;26.40;24.20;18.60
49343;PMS5003;35210;41.606;-87.602;2023-06-24T09:11:28;25.20;24.60;19.40
49343;PMS5003;35210;41.606;-87.602;2023-06-24T09:13:58;23.80;22.80;17.60
49343;PMS5003;35210;41.606;-87.602;2023-06-24T09:16:27;24.20;21.80;18.00
49343;PMS5003;35210;41.606;-87.602;2023-06-24T09:18:56;28.00;24.00;18.00
49343;PMS5003;35210;41.606;-87.602;2023-06-24T09:21:26;23.80;23.80;17.40
49343;PMS5003;35210;41.606;-87.602;2023-06-24T09:23:56;30.00;22.80;19.00
49343;PMS5003;35210;41.606;-87.602;2023-06-24T09:26:26;22.80;21.80;16.00
49343;PMS5003;35210;41.606;-87.602;2023-06-24T09:28:55;27.60;25.40;19.60
49343;PMS5003;35210;41.606;-87.602;2023-06-24T09:31:25;25.00;22.80;17.00
49343;PMS5003;35210;41.606;-87.602;2023-06-24T09:33:56;24.60;24.00;19.80
49343;PMS5003;35210;41.606;-87.602;2023-06-24T09:36:25;26.00;24.40;19.60
49343;PMS5003;35210;41.606;-87.602;2023-06-24T09:38:53;22.20;21.00;15.60
49343;PMS5003;35210;41.606;-87.602;2023-06-24T09:41:24;24.60;24.20;18.80
49343;PMS5003;35210;41.606;-87.602;2023-06-24T09:43:53;24.20;22.60;18.00
49343;PMS5003;35210;41.606;-87.602;2023-06-24T09:46:26;19.40;19.40;17.00
49343;PMS5003;35210;41.606;-87.602;2023-06-24T09:48:55;24.00;21.80;17.20
49343;PMS5003;35210;41.606;-87.602;2023-06-24T09:51:23;27.80;23.00;18.60
49343;PMS5003;35210;41.606;-87.602;2023-06-24T09:53:53;26.80;26.60;18.20
49343;PMS5003;35210;41.606;-87.602;2023-06-24T09:56:24;22.20;21.20;18.60
49343;PMS5003;35210;41.606;-87.602;2023-06-24T09:58:53;26.20;25.00;18.80
49343;PMS5003;35210;41.606;-87.602;2023-06-24T10:01:21;21.40;20.60;16.20
49343;PMS5003;35210;41.606;-87.602;2023-06-24T10:03:50;28.00;25.80;20.00
49343;PMS5003;35210;41.606;-87.602;2023-06-24T10:06:18;23.80;23.80;19.00
49343;PMS5003;35210;41.606;-87.602;2023-06-24T10:08:47;22.60;22.00;18.20
49343;PMS5003;35210;41.606;-87.602;2023-06-24T10:11:16;25.80;23.60;18.40
49343;PMS5003;35210;41.606;-87.602;2023-06-24T10:13:46;22.80;19.00;16.20
49343;PMS5003;35210;41.606;-87.602;2023-06-24T10:16:15;21.80;21.60;17.40
49343;PMS5003;35210;41.606;-87.602;2023-06-24T10:18:43;31.00;29.00;20.20
49343;PMS5003;35210;41.606;-87.602;2023-06-24T10:21:12;23.80;23.00;19.80
49343;PMS5003;35210;41.606;-87.602;2023-06-24T10:23:50;26.60;22.20;16.00
49343;PMS5003;35210;41.606;-87.602;2023-06-24T10:26:23;29.20;25.40;18.80
49343;PMS5003;35210;41.606;-87.602;2023-06-24T10:29:13;22.60;21.20;17.80
49343;PMS5003;35210;41.606;-87.602;2023-06-24T10:31:52;27.80;27.80;20.60
49343;PMS5003;35210;41.606;-87.602;2023-06-24T10:34:28;27.20;25.80;17.20
49343;PMS5003;35210;41.606;-87.602;2023-06-24T10:36:59;26.60;25.00;20.00
49343;PMS5003;35210;41.606;-87.602;2023-06-24T10:39:39;27.20;25.20;18.60
49343;PMS5003;35210;41.606;-87.602;2023-06-24T10:42:30;28.80;24.80;18.80
49343;PMS5003;35210;41.606;-87.602;2023-06-24T10:45:16;29.20;28.20;20.20
49343;PMS5003;35210;41.606;-87.602;2023-06-24T10:47:49;25.60;23.60;19.20
49343;PMS5003;35210;41.606;-87.602;2023-06-24T10:50:21;26.20;22.20;19.60
49343;PMS5003;35210;41.606;-87.602;2023-06-24T10:52:50;22.40;22.20;18.60
49343;PMS5003;35210;41.606;-87.602;2023-06-24T10:55:22;26.20;24.40;19.20
49343;PMS5003;35210;41.606;-87.602;2023-06-24T10:57:51;29.80;24.60;17.80
49343;PMS5003;35210;41.606;-87.602;2023-06-24T11:00:21;27.00;25.40;17.00
49343;PMS5003;35210;41.606;-87.602;2023-06-24T11:02:49;25.80;23.00;18.00
49343;PMS5003;35210;41.606;-87.602;2023-06-24T11:05:17;26.60;23.60;18.00
49343;PMS5003;35210;41.606;-87.602;2023-06-24T11:07:45;31.20;23.20;17.00
49343;PMS5003;35210;41.606;-87.602;2023-06-24T11:10:14;26.80;25.20;18.60
49343;PMS5003;35210;41.606;-87.602;2023-06-24T11:12:42;21.60;21.20;16.60
49343;PMS5003;35210;41.606;-87.602;2023-06-24T11:15:12;27.60;27.00;18.80
49343;PMS5003;35210;41.606;-87.602;2023-06-24T11:17:42;27.00;23.60;18.00
49343;PMS5003;35210;41.606;-87.602;2023-06-24T11:20:11;26.20;24.80;18.00
49343;PMS5003;35210;41.606;-87.602;2023-06-24T11:22:40;23.40;22.00;17.20
49343;PMS5003;35210;41.606;-87.602;2023-06-24T11:25:14;26.40;24.40;18.80
49343;PMS5003;35210;41.606;-87.602;2023-06-24T11:27:43;32.80;28.60;20.20
49343;PMS5003;35210;41.606;-87.602;2023-06-24T11:30:12;22.20;22.00;18.00
49343;PMS5003;35210;41.606;-87.602;2023-06-24T11:32:44;27.40;25.80;20.20
49343;PMS5003;35210;41.606;-87.602;2023-06-24T11:35:13;28.00;26.40;19.40
49343;PMS5003;35210;41.606;-87.602;2023-06-24T11:37:42;28.20;26.20;18.20
49343;PMS5003;35210;41.606;-87.602;2023-06-24T11:40:11;30.40;29.00;20.40
49343;PMS5003;35210;41.606;-87.602;2023-06-24T11:42:42;30.60;26.80;21.40
49343;PMS5003;35210;41.606;-87.602;2023-06-24T11:45:12;30.20;27.40;20.40
49343;PMS5003;35210;41.606;-87.602;2023-06-24T11:47:42;23.00;23.00;17.20
49343;PMS5003;35210;41.606;-87.602;2023-06-24T11:50:10;28.80;27.00;18.60
49343;PMS5003;35210;41.606;-87.602;2023-06-24T11:52:39;24.40;23.00;17.00
49343;PMS5003;35210;41.606;-87.602;2023-06-24T11:55:12;25.60;24.60;20.80
49343;PMS5003;35210;41.606;-87.602;2023-06-24T11:57:49;28.00;24.80;18.20
49343;PMS5003;35210;41.606;-87.602;2023-06-24T12:00:22;30.40;25.80;20.00
49343;PMS5003;35210;41.606;-87.602;2023-06-24T12:02:54;27.40;27.20;18.40
49343;PMS5003;35210;41.606;-87.602;2023-06-24T12:05:23;26.40;25.60;18.60
49343;PMS5003;35210;41.606;-87.602;2023-06-24T12:07:59;23.60;23.60;17.00
49343;PMS5003;35210;41.606;-87.602;2023-06-24T12:10:29;26.20;23.80;17.00
49343;PMS5003;35210;41.606;-87.602;2023-06-24T12:12:59;24.20;23.40;18.00
49343;PMS5003;35210;41.606;-87.602;2023-06-24T12:15:28;25.00;23.80;18.40
49343;PMS5003;35210;41.606;-87.602;2023-06-24T12:17:58;27.00;22.80;16.00
49343;PMS5003;35210;41.606;-87.602;2023-06-24T12:20:26;25.60;23.40;18.00
49343;PMS5003;35210;41.606;-87.602;2023-06-24T12:22:55;22.00;20.20;15.40
49343;PMS5003;35210;41.606;-87.602;2023-06-24T12:25:23;24.40;20.60;15.80
49343;PMS5003;35210;41.606;-87.602;2023-06-24T12:27:51;22.60;21.20;16.60
49343;PMS5003;35210;41.606;-87.602;2023-06-24T12:30:19;22.60;19.60;16.60
49343;PMS5003;35210;41.606;-87.602;2023-06-24T12:32:49;19.80;18.40;14.20
49343;PMS5003;35210;41.606;-87.602;2023-06-24T12:35:19;25.00;20.00;14.40
49343;PMS5003;35210;41.606;-87.602;2023-06-24T12:37:47;23.60;22.60;16.00
49343;PMS5003;35210;41.606;-87.602;2023-06-24T12:40:15;19.80;18.40;15.80
49343;PMS5003;35210;41.606;-87.602;2023-06-24T12:42:44;24.00;24.00;17.00
49343;PMS5003;35210;41.606;-87.602;2023-06-24T12:45:12;23.80;22.80;17.40
49343;PMS5003;35210;41.606;-87.602;2023-06-24T12:47:40;23.40;22.80;16.00
49343;PMS5003;35210;41.606;-87.602;2023-06-24T12:50:08;26.60;25.20;19.00
49343;PMS5003;35210;41.606;-87.602;2023-06-24T12:52:38;27.20;22.60;16.00
49343;PMS5003;35210;41.606;-87.602;2023-06-24T12:55:07;22.20;21.20;17.00
49343;PMS5003;35210;41.606;-87.602;2023-06-24T12:57:36;26.60;23.60;15.60
49343;PMS5003;35210;41.606;-87.602;2023-06-24T13:00:04;33.00;26.00;19.40
49343;PMS5003;35210;41.606;-87.602;2023-06-24T13:02:33;18.00;17.80;13.80
49343;PMS5003;35210;41.606;-87.602;2023-06-24T13:05:02;25.40;22.40;15.20
49343;PMS5003;35210;41.606;-87.602;2023-06-24T13:07:31;19.40;18.60;13.20
49343;PMS5003;35210;41.606;-87.602;2023-06-24T13:10:01;24.40;19.40;16.20
49343;PMS5003;35210;41.606;-87.602;2023-06-24T13:12:31;21.00;19.40;13.40
49343;PMS5003;35210;41.606;-87.602;2023-06-24T13:14:59;19.80;18.20;14.40
49343;PMS5003;35210;41.606;-87.602;2023-06-24T13:17:29;21.00;21.00;15.00
49343;PMS5003;35210;41.606;-87.602;2023-06-24T13:19:58;23.80;22.00;16.40
49343;PMS5003;35210;41.606;-87.602;2023-06-24T13:22:27;23.20;19.40;13.80
49343;PMS5003;35210;41.606;-87.602;2023-06-24T13:24:55;15.20;15.20;11.00
49343;PMS5003;35210;41.606;-87.602;2023-06-24T13:27:25;18.20;17.20;12.80
49343;PMS5003;35210;41.606;-87.602;2023-06-24T13:29:53;19.20;17.40;13.20
49343;PMS5003;35210;41.606;-87.602;2023-06-24T13:32:21;18.20;18.20;13.20
49343;PMS5003;35210;41.606;-87.602;2023-06-24T13:34:49;19.80;17.40;13.20
49343;PMS5003;35210;41.606;-87.602;2023-06-24T13:37:17;18.00;18.00;14.00
49343;PMS5003;35210;41.606;-87.602;2023-06-24T13:39:45;13.00;12.20;10.60